Azamara Journey — 9HOB8 — position and weather

sailwx.info

Track history (hours):
 
Tides and Currents Weather Stations Pressure Air Temp Water Temp Dewpoint Dewpoint Depression Visibility Wind Speed Wind Dir Waves Ship Positions

Azamara Journey

Last reported at 2019-Jun-16 10:27 UTC. Time now 2019-Jun-16 15:13 UTC.
Position N 56°40' E 018°11'.

Type: Passenger vessel. MMSI: 256204000.

Date/timePositionNaut miles runAvg speedWind from/ knotsBaromVisibWave heightAir tempDewpointWater temp
2019-Jun-16 10:27N 56°40' E 018°11'716.8
2019-Jun-16 10:00N 56°36' E 017°60'032.3
2019-Jun-16 10:00N 56°36' E 018°00'2217.3 040 / 141012.8 16.016.015.0
2019-Jun-16 08:42N 56°22' E 017°28'617.1
2019-Jun-16 08:20N 56°18' E 017°20'1954.7
2019-Jun-16 08:00N 56°06' E 016°54'1065.1 360 / 161012.810.8 18.014.617.0
2019-Jun-16 07:50N 56°13' E 017°08'617.2
2019-Jun-16 07:30N 56°09' E 017°00'917.3
2019-Jun-16 07:00N 56°04' E 016°48'917.3
2019-Jun-16 06:30N 55°60' E 016°34'917.3
2019-Jun-16 06:00N 55°55' E 016°21'917.4
2019-Jun-16 05:30N 55°51' E 016°07'917.6
2019-Jun-16 05:00N 55°47' E 015°53'816.8
2019-Jun-16 04:30N 55°43' E 015°40'917.5
2019-Jun-16 04:00N 55°39' E 015°26'917.6
2019-Jun-16 03:30N 55°35' E 015°13'1019.1
2019-Jun-16 02:59N 55°30' E 014°57'2118.7
2019-Jun-16 01:53N 55°16' E 014°30'719.0
2019-Jun-16 01:30N 55°12' E 014°21'4932.7
2019-Jun-16 00:00N 55°12' E 012°54'2 1.8 300 / 101010.9 18.018.015.0
2019-Jun-15 22:56N 55°14' E 012°55'817.8
2019-Jun-15 22:30N 55°16' E 012°42'714.9
2019-Jun-15 22:00N 55°24' E 012°39'815.6
2019-Jun-15 21:30N 55°31' E 012°42'510.7
2019-Jun-15 21:00N 55°37' E 012°42'6420.1
2019-Jun-15 21:00N 55°42' E 012°36'3 5.8 120 / 31010.8 5.4 18.014.617.0
2019-Jun-15 20:30N 55°43' E 012°41'3 6.0
2019-Jun-15 20:00N 55°41' E 012°36'0 0.0
2019-Jun-15 19:27N 55°41' E 012°36'0 0.0
2019-Jun-15 19:00N 55°41' E 012°36'0 0.0
2019-Jun-15 18:27N 55°41' E 012°36'0 0.0
2019-Jun-15 18:00N 55°41' E 012°36'0 0.0
2019-Jun-15 17:27N 55°41' E 012°36'0 0.0
2019-Jun-15 16:57N 55°41' E 012°36'0 0.0
2019-Jun-15 16:30N 55°41' E 012°36'0 0.0
2019-Jun-15 16:00N 55°41' E 012°36'0 0.0
2019-Jun-15 15:30N 55°41' E 012°36'0 0.0
2019-Jun-15 14:54N 55°41' E 012°36'0 0.0
2019-Jun-15 14:30N 55°41' E 012°36'0 0.0
2019-Jun-15 14:00N 55°41' E 012°36'0 0.0
2019-Jun-15 13:30N 55°41' E 012°36'0 0.0
2019-Jun-15 13:00N 55°41' E 012°36'554910.8
2019-Jun-15 13:00N 56°36' E 012°36'55101.2 090 / 261011.2 18.018.015.0
2019-Jun-15 12:27N 55°41' E 012°36'0 0.0
2019-Jun-15 12:00N 55°41' E 012°36'0 0.0
2019-Jun-15 11:30N 55°41' E 012°36'0 0.0
2019-Jun-15 11:00N 55°41' E 012°36'0 0.0
2019-Jun-15 10:30N 55°41' E 012°36'0 0.0
2019-Jun-15 10:00N 55°41' E 012°36'5489.2
2019-Jun-15 10:00N 55°36' E 012°36'510.1 090 / 61013.8 5.4 18.014.616.0
2019-Jun-15 09:27N 55°41' E 012°36'0 0.0
2019-Jun-15 09:00N 55°41' E 012°36'0 0.0
2019-Jun-15 08:30N 55°41' E 012°36'0 0.0
2019-Jun-15 07:54N 55°41' E 012°36'0 0.0
2019-Jun-15 07:27N 55°41' E 012°36'0 0.0
2019-Jun-15 07:00N 55°41' E 012°36'0 0.0
2019-Jun-15 06:24N 55°41' E 012°36'0 0.0
2019-Jun-15 06:00N 55°41' E 012°36'1 2.7
2019-Jun-15 05:31N 55°43' E 012°37'713.1
2019-Jun-15 05:01N 55°36' E 012°42'612.4
2019-Jun-15 04:30N 55°30' E 012°42'816.0
2019-Jun-15 04:01N 55°22' E 012°41'917.1
2019-Jun-15 03:30N 55°14' E 012°40'917.8
2019-Jun-15 03:00N 55°05' E 012°42'917.8
2019-Jun-15 02:31N 54°56' E 012°44'917.7
2019-Jun-15 02:00N 54°47' E 012°45'816.7
2019-Jun-15 01:30N 54°41' E 012°35'816.6
2019-Jun-15 01:00N 54°36' E 012°23'816.0
2019-Jun-15 00:31N 54°30' E 012°16'815.1
2019-Jun-15 00:00N 54°24' E 012°06'320.0 180 / 101012.8 15.015.015.0
2019-Jun-14 23:51N 54°24' E 012°01'616.6
2019-Jun-14 23:30N 54°24' E 011°51'816.3
2019-Jun-14 23:01N 54°26' E 011°38'816.6
2019-Jun-14 22:31N 54°30' E 011°25'816.0
2019-Jun-14 22:01N 54°34' E 011°13'815.5
2019-Jun-14 21:30N 54°34' E 010°60'816.6
2019-Jun-14 21:00N 54°34' E 010°45'816.8
2019-Jun-14 20:30N 54°32' E 010°31'816.3
2019-Jun-14 20:00N 54°29' E 010°18'6397.4
2019-Jun-14 20:00N 54°24' E 010°12'0 0.4 230 / 81013.8 5.4 18.012.716.0
2019-Jun-14 19:30N 54°24' E 010°12'3 5.6
2019-Jun-14 18:58N 54°22' E 010°09'0 0.5
2019-Jun-14 18:30N 54°22' E 010°08'3 5.8
2019-Jun-14 18:00N 54°22' E 010°03'3 6.3
2019-Jun-14 17:30N 54°21' E 009°58'3 6.4
2019-Jun-14 17:00N 54°21' E 009°53'3 6.1
2019-Jun-14 16:30N 54°22' E 009°48'3 6.2
2019-Jun-14 16:00N 54°20' E 009°44'3 6.0
2019-Jun-14 15:30N 54°18' E 009°40'2 4.7
2019-Jun-14 15:00N 54°16' E 009°38'1 3.0
2019-Jun-14 14:30N 54°14' E 009°37'3 6.1
2019-Jun-14 14:00N 54°12' E 009°33'3 7.0
2019-Jun-14 13:30N 54°11' E 009°28'3 6.0
2019-Jun-14 13:00N 54°09' E 009°23'3 6.5
2019-Jun-14 12:30N 54°07' E 009°20'3 6.9
2019-Jun-14 12:00N 54°04' E 009°19'4347.1
2019-Jun-14 12:00N 54°00' E 009°18'2 4.7 200 / 91013.8 22.022.015.0
2019-Jun-14 11:30N 54°02' E 009°18'2 4.7
2019-Jun-14 11:00N 53°60' E 009°18'3 6.8
2019-Jun-14 10:30N 53°57' E 009°14'3 6.7
2019-Jun-14 10:00N 53°55' E 009°11'1 2.8
2019-Jun-14 09:30N 53°54' E 009°09'0 0.5
2019-Jun-14 09:00N 53°53' E 009°08'2 3.2
2019-Jun-14 08:30N 53°53' E 009°06'2 4.2
2019-Jun-14 08:00N 53°52' E 009°03'102632.4
2019-Jun-14 08:00N 53°48' E 008°48'3 5.0 200 / 171014.8 5.4 15.011.315.0
2019-Jun-14 07:30N 53°50' E 008°49'814.0
2019-Jun-14 06:55N 53°56' E 008°39'716.5
2019-Jun-14 06:28N 53°59' E 008°27'1015.4
2019-Jun-14 05:49N 53°59' E 008°10'413.8
2019-Jun-14 05:30N 53°59' E 008°03'714.8
2019-Jun-14 05:00N 53°57' E 007°51'9816.3
2019-Jun-13 23:00N 53°30' E 005°12'612.2 190 / 301010.0 14.014.015.0
2019-Jun-13 22:30N 53°29' E 005°02'1937.4
2019-Jun-13 22:00N 53°18' E 004°36'2 2.4 180 / 201008.810.8 14.010.215.0
2019-Jun-13 21:20N 53°18' E 004°39'516.2
2019-Jun-13 21:01N 53°13' E 004°34'816.0
2019-Jun-13 20:31N 53°06' E 004°28'816.0
2019-Jun-13 20:01N 52°59' E 004°22'815.6
2019-Jun-13 19:30N 52°52' E 004°17'815.2
2019-Jun-13 19:00N 52°44' E 004°15'815.7
2019-Jun-13 18:31N 52°37' E 004°17'816.1
2019-Jun-13 18:01N 52°30' E 004°25'611.4
2019-Jun-13 17:31N 52°28' E 004°33'2 3.8
2019-Jun-13 17:01N 52°28' E 004°36'3 5.1
2019-Jun-13 16:30N 52°27' E 004°41'4 7.9
2019-Jun-13 16:00N 52°26' E 004°46'4 7.8
2019-Jun-13 15:31N 52°24' E 004°52'2 4.5
2019-Jun-13 15:00N 52°23' E 004°55'0 0.0
2019-Jun-13 14:30N 52°23' E 004°55'0 0.0
2019-Jun-13 14:00N 52°23' E 004°55'0 0.0
2019-Jun-13 13:30N 52°23' E 004°55'0 0.0
2019-Jun-13 12:57N 52°23' E 004°55'0 0.0
2019-Jun-13 12:30N 52°23' E 004°55'0 0.0
2019-Jun-13 12:00N 52°23' E 004°55'0 0.0
2019-Jun-13 11:30N 52°23' E 004°55'0 0.0
2019-Jun-13 10:54N 52°23' E 004°55'0 0.0
2019-Jun-13 10:30N 52°23' E 004°55'0 0.0
2019-Jun-13 10:00N 52°23' E 004°55'0 0.0
2019-Jun-13 09:30N 52°23' E 004°55'0 0.0
2019-Jun-13 09:00N 52°23' E 004°55'51069.3
2019-Jun-13 09:00N 52°18' E 004°54'5 8.7 190 / 201008.8 5.4 15.011.316.0
2019-Jun-13 08:27N 52°23' E 004°55'0 0.0
2019-Jun-13 08:00N 52°23' E 004°55'0 0.0
2019-Jun-13 07:30N 52°23' E 004°55'0 0.0
2019-Jun-13 07:00N 52°23' E 004°55'0 0.0
2019-Jun-13 06:27N 52°23' E 004°55'0 0.0
2019-Jun-13 06:00N 52°23' E 004°55'0 0.0
2019-Jun-13 05:27N 52°23' E 004°55'0 0.0
2019-Jun-13 05:00N 52°23' E 004°55'0 0.0
2019-Jun-13 04:27N 52°23' E 004°55'0 0.0
2019-Jun-13 03:57N 52°23' E 004°55'0 0.0
2019-Jun-13 03:30N 52°23' E 004°55'0 0.0
2019-Jun-13 03:00N 52°23' E 004°55'0 0.0
2019-Jun-13 02:30N 52°23' E 004°55'0 0.0
2019-Jun-13 02:00N 52°23' E 004°55'0 0.0
2019-Jun-13 01:30N 52°23' E 004°55'0 0.0
2019-Jun-13 01:00N 52°23' E 004°55'0 0.0
2019-Jun-13 00:30N 52°23' E 004°55'0 0.0
2019-Jun-13 00:00N 52°23' E 004°55'0 0.0
2019-Jun-12 23:30N 52°23' E 004°55'0 0.0
2019-Jun-12 23:00N 52°23' E 004°55'51006.4
2019-Jun-12 23:00N 52°18' E 004°54'5 9.6 180 / 31008.0 13.013.015.0
2019-Jun-12 22:30N 52°23' E 004°55'0 0.0
2019-Jun-12 21:57N 52°23' E 004°55'0 0.0
2019-Jun-12 21:30N 52°23' E 004°55'0 0.0
2019-Jun-12 21:00N 52°23' E 004°55'0 0.0
2019-Jun-12 20:30N 52°23' E 004°55'0 0.0
2019-Jun-12 20:00N 52°23' E 004°55'0 0.0
2019-Jun-12 19:30N 52°23' E 004°55'0 0.0
2019-Jun-12 19:00N 52°23' E 004°55'51006.4
2019-Jun-12 19:00N 52°18' E 004°54'5 9.6 180 / 31007.8 5.4 14.010.215.0
2019-Jun-12 18:30N 52°23' E 004°55'0 0.0
2019-Jun-12 18:00N 52°23' E 004°55'0 0.0
2019-Jun-12 17:30N 52°23' E 004°55'0 0.0
2019-Jun-12 16:51N 52°23' E 004°55'0 0.0
2019-Jun-12 16:30N 52°23' E 004°55'0 0.0
2019-Jun-12 16:00N 52°23' E 004°55'0 0.0
2019-Jun-12 15:30N 52°23' E 004°55'1 1.1
2019-Jun-12 15:01N 52°23' E 004°56'2 4.5
2019-Jun-12 14:31N 52°24' E 004°53'4 7.8
2019-Jun-12 14:01N 52°26' E 004°47'4 8.3
2019-Jun-12 13:30N 52°27' E 004°41'3 5.0
2019-Jun-12 13:01N 52°28' E 004°37'2 3.9
2019-Jun-12 12:30N 52°28' E 004°33'612.4
2019-Jun-12 12:00N 52°29' E 004°23'510.3
2019-Jun-12 11:30N 52°29' E 004°15'510.3
2019-Jun-12 11:00N 52°28' E 004°06'510.1
2019-Jun-12 10:30N 52°27' E 003°58'510.0
2019-Jun-12 10:00N 52°26' E 003°50'510.3
2019-Jun-12 09:28N 52°24' E 003°42'510.2
2019-Jun-12 09:00N 52°22' E 003°35'5320.3
2019-Jun-12 09:00N 52°18' E 003°30'2 3.3 050 / 121008.8 5.4 14.010.215.0
2019-Jun-12 08:28N 52°19' E 003°28'611.4
2019-Jun-12 07:59N 52°15' E 003°20'612.0
2019-Jun-12 07:30N 52°12' E 003°13'611.6
2019-Jun-12 07:00N 52°08' E 003°07'611.4
2019-Jun-12 06:30N 52°03' E 003°01'611.4
2019-Jun-12 06:00N 51°59' E 002°54'611.4
2019-Jun-12 05:30N 51°55' E 002°48'611.7
2019-Jun-12 05:00N 51°50' E 002°42'611.6
2019-Jun-12 04:31N 51°46' E 002°36'611.4
2019-Jun-12 04:00N 51°42' E 002°30'611.6
2019-Jun-12 03:30N 51°37' E 002°24'611.5
2019-Jun-12 03:01N 51°33' E 002°18'1111.1
2019-Jun-12 02:00N 51°25' E 002°05'11787.2
2019-Jun-12 02:00N 51°24' E 001°48'612.4 130 / 101010.3 16.016.016.0
2019-Jun-12 01:31N 51°25' E 001°57'611.8
2019-Jun-12 01:01N 51°29' E 001°50'612.9
2019-Jun-12 00:31N 51°29' E 001°40'612.9
2019-Jun-12 00:00N 51°28' E 001°30'510.1
2019-Jun-11 23:30N 51°28' E 001°22'815.8
2019-Jun-11 23:00N 51°29' E 001°09'612.3
2019-Jun-11 22:30N 51°29' E 000°59'816.1
2019-Jun-11 22:00N 51°29' E 000°47'7431.9
2019-Jun-11 22:00N 51°24' E 000°54'1429.0 360 / 171010.8 5.4 14.010.216.0
2019-Jun-11 21:30N 51°30' E 000°34'612.0
2019-Jun-11 21:01N 51°27' E 000°26'5 9.9
2019-Jun-11 20:31N 51°28' E 000°18'611.2
2019-Jun-11 20:00N 51°30' E 000°10'5 9.9
2019-Jun-11 19:31N 51°30' E 000°02'2 3.7
2019-Jun-11 19:00N 51°29' W 000°01'0 0.0
2019-Jun-11 18:30N 51°29' W 000°01'0 0.0
2019-Jun-11 18:00N 51°29' W 000°01'0 0.0
2019-Jun-11 17:12N 51°29' W 000°01'0 0.0
2019-Jun-11 16:48N 51°29' W 000°01'0 0.0
2019-Jun-11 16:24N 51°29' W 000°01'0 0.0
2019-Jun-11 15:24N 51°29' W 000°01'0 0.0
2019-Jun-11 12:00N 51°29' W 000°01'5 5.1
2019-Jun-11 11:00N 51°24' E 000°00'520.6 1020.7 18.018.016.0
2019-Jun-11 10:45N 51°29' W 000°01'0 0.0
2019-Jun-11 10:09N 51°29' W 000°01'0 0.0
2019-Jun-11 09:42N 51°29' W 000°01'0 0.0
2019-Jun-11 09:27N 51°29' W 000°01'511.2
2019-Jun-11 09:00N 51°24' E 000°00'552.6 110 / 41010.8 5.4 15.011.317.0
2019-Jun-11 08:54N 51°29' W 000°01'0 0.0
2019-Jun-11 08:24N 51°29' W 000°01'0 0.0
2019-Jun-11 08:00N 51°29' W 000°01'0 0.0
2019-Jun-11 07:06N 51°29' W 000°01'0 0.0
2019-Jun-11 06:54N 51°29' W 000°01'0 0.0
2019-Jun-11 06:30N 51°29' W 000°01'0 0.0
2019-Jun-11 05:48N 51°29' W 000°01'0 0.0
2019-Jun-11 05:12N 51°29' W 000°01'0 0.0
2019-Jun-11 04:48N 51°29' W 000°01'0 0.0
2019-Jun-11 04:30N 51°29' W 000°01'0 0.0
2019-Jun-11 03:42N 51°29' W 000°01'0 0.0
2019-Jun-11 03:30N 51°29' W 000°01'0 0.0
2019-Jun-11 02:54N 51°29' W 000°01'0 0.0
2019-Jun-11 02:06N 51°29' W 000°01'0 0.0
2019-Jun-11 01:36N 51°29' W 000°01'0 0.0
2019-Jun-11 01:24N 51°29' W 000°01'0 0.0
2019-Jun-11 00:48N 51°29' W 000°01'0 0.0
2019-Jun-11 00:30N 51°29' W 000°01'0 0.0
2019-Jun-10 23:48N 51°29' W 000°01'5 6.3
2019-Jun-10 23:00N 51°24' E 000°00'552.4 200 / 41008.8 5.4 12.0 7.916.0
2019-Jun-10 22:54N 51°29' W 000°01'0 0.0
2019-Jun-10 22:30N 51°29' W 000°01'0 0.0
2019-Jun-10 21:36N 51°29' W 000°01'0 0.0
2019-Jun-10 21:06N 51°29' W 000°01'0 0.0
2019-Jun-10 20:12N 51°29' W 000°01'0 0.0
2019-Jun-10 19:30N 51°29' W 000°01'0 0.0
2019-Jun-10 18:48N 51°29' W 000°01'0 0.0
2019-Jun-10 18:18N 51°29' W 000°01'0 0.0
2019-Jun-10 17:48N 51°29' W 000°01'0 0.0
2019-Jun-10 17:21N 51°29' W 000°01'0 0.0
2019-Jun-10 16:57N 51°29' W 000°01'0 0.0
2019-Jun-10 16:27N 51°29' W 000°01'0 0.0
2019-Jun-10 15:45N 51°29' W 000°01'0 0.0
2019-Jun-10 14:36N 51°29' W 000°01'0 0.0
2019-Jun-10 14:12N 51°29' W 000°01'0 0.0
2019-Jun-10 13:51N 51°29' W 000°01'0 0.0
2019-Jun-10 12:51N 51°29' W 000°01'0 0.0
2019-Jun-10 11:42N 51°29' W 000°01'0 0.0
2019-Jun-10 11:24N 51°29' W 000°01'0 0.0
2019-Jun-10 10:48N 51°29' W 000°01'0 0.0
2019-Jun-10 10:18N 51°29' W 000°01'0 0.0
2019-Jun-10 09:54N 51°29' W 000°01'0 0.0
2019-Jun-10 09:30N 51°29' W 000°01'510.1
2019-Jun-10 09:00N 51°24' E 000°00'525.8 010 / 61014.8 5.4 14.012.215.0
2019-Jun-10 08:48N 51°29' W 000°01'0 0.0
2019-Jun-10 08:30N 51°29' W 000°01'0 0.0
2019-Jun-10 08:00N 51°29' W 000°01'0 0.0
2019-Jun-10 07:30N 51°29' W 000°01'0 0.0
2019-Jun-10 07:00N 51°29' W 000°01'0 0.0
2019-Jun-10 06:24N 51°29' W 000°01'0 0.0
2019-Jun-10 06:00N 51°29' W 000°01'0 0.9
2019-Jun-10 05:30N 51°29' W 000°00'1 2.4
2019-Jun-10 05:00N 51°30' E 000°00'4 7.2
2019-Jun-10 04:30N 51°31' E 000°06'611.9
2019-Jun-10 04:01N 51°28' E 000°15'510.0
2019-Jun-10 03:30N 51°27' E 000°23'4 8.3
2019-Jun-10 03:01N 51°29' E 000°28'510.7
2019-Jun-10 02:30N 51°30' E 000°36'713.7
2019-Jun-10 02:00N 51°29' E 000°47'713.3
2019-Jun-10 01:30N 51°29' E 000°58'613.0
2019-Jun-10 01:00N 51°29' E 001°08'612.2
2019-Jun-10 00:30N 51°29' E 001°18'612.1
2019-Jun-10 00:00N 51°27' E 001°28'611.1
2019-Jun-09 23:31N 51°24' E 001°34'4 8.6
2019-Jun-09 23:01N 51°20' E 001°37'4 8.3
2019-Jun-09 22:30N 51°16' E 001°39'4 7.7
2019-Jun-09 22:01N 51°12' E 001°41'510.6
2019-Jun-09 21:31N 51°07' E 001°41'4 8.7
2019-Jun-09 21:00N 51°04' E 001°37'4225.0
2019-Jun-09 21:00N 51°00' E 001°36'3 6.2 070 / 81017.9 5.4 13.011.116.0
2019-Jun-09 20:31N 51°00' E 001°31'5 9.1
2019-Jun-09 20:00N 50°57' E 001°26'5 9.2
2019-Jun-09 19:30N 50°53' E 001°24'5 9.6
2019-Jun-09 19:00N 50°48' E 001°22'510.0
2019-Jun-09 18:28N 50°43' E 001°20'5 9.6
2019-Jun-09 17:59N 50°40' E 001°14'5 9.8
2019-Jun-09 17:30N 50°37' E 001°08'510.2
2019-Jun-09 16:59N 50°34' E 001°01'510.1
2019-Jun-09 16:29N 50°31' E 000°54'4 9.3
2019-Jun-09 16:00N 50°30' E 000°48'5 9.8
2019-Jun-09 15:30N 50°29' E 000°40'5 9.8
2019-Jun-09 15:01N 50°27' E 000°33'5 9.8
2019-Jun-09 14:30N 50°24' E 000°27'5 9.8
2019-Jun-09 14:00N 50°22' E 000°20'5 9.9
2019-Jun-09 13:30N 50°20' E 000°13'510.0
2019-Jun-09 13:00N 50°18' E 000°06'0 8.6
2019-Jun-09 13:00N 50°18' E 000°06'810.6 090 / 81019.8 13.013.016.0
2019-Jun-09 12:17N 50°15' W 000°05'310.3
2019-Jun-09 12:00N 50°13' W 000°08'510.3
2019-Jun-09 11:30N 50°10' W 000°15'4 8.9
2019-Jun-09 11:00N 50°06' W 000°12'510.4
2019-Jun-09 10:30N 50°03' W 000°06'5 9.3
2019-Jun-09 10:01N 49°59' W 000°03'510.3
2019-Jun-09 09:30N 49°55' W 000°09'5 9.2
2019-Jun-09 09:01N 49°54' W 000°15'510.3
2019-Jun-09 08:30N 49°57' W 000°22'510.4
2019-Jun-09 08:01N 49°59' W 000°29'510.5
2019-Jun-09 07:30N 50°02' W 000°36'510.3
2019-Jun-09 07:00N 50°02' W 000°44'510.5
2019-Jun-09 06:30N 50°01' W 000°52'510.2
2019-Jun-09 06:01N 49°60' W 000°60'3 6.1
2019-Jun-09 05:30N 49°56' W 001°01'611.4
2019-Jun-09 05:01N 49°53' W 000°54'1010.5
2019-Jun-09 04:00N 49°43' W 000°47'510.4
2019-Jun-09 03:30N 49°39' W 000°42'510.7
2019-Jun-09 03:01N 49°35' W 000°37'510.0
2019-Jun-09 02:30N 49°32' W 000°31'510.2
2019-Jun-09 02:01N 49°32' W 000°23'510.6
2019-Jun-09 01:31N 49°32' W 000°15'612.5
2019-Jun-09 01:00N 49°30' W 000°05'5 9.9
2019-Jun-09 00:30N 49°27' E 000°01'714.9
2019-Jun-09 00:00N 49°26' E 000°13'611.2
2019-Jun-08 23:31N 49°26' E 000°21'510.6
2019-Jun-08 23:01N 49°29' E 000°28'4 8.1
2019-Jun-08 22:31N 49°27' E 000°34'4 8.4
2019-Jun-08 22:01N 49°28' E 000°40'4 8.4
2019-Jun-08 21:31N 49°31' E 000°44'510.1
2019-Jun-08 21:00N 49°28' E 000°49'4 8.5
2019-Jun-08 20:31N 49°24' E 000°51'510.4
2019-Jun-08 20:00N 49°29' E 000°53'4 8.4
2019-Jun-08 19:30N 49°25' E 000°56'4 8.7
2019-Jun-08 19:00N 49°21' E 000°58'4 7.4
2019-Jun-08 18:30N 49°24' E 001°01'3 5.3
2019-Jun-08 18:00N 49°27' E 001°03'0 0.0
2019-Jun-08 17:25N 49°27' E 001°03'0 0.0
2019-Jun-08 16:55N 49°27' E 001°03'0 0.0
2019-Jun-08 16:25N 49°27' E 001°03'0 0.0
2019-Jun-08 15:55N 49°27' E 001°03'0 0.0
2019-Jun-08 15:19N 49°27' E 001°03'0 0.0
2019-Jun-08 14:55N 49°27' E 001°03'0 0.0
2019-Jun-08 14:25N 49°27' E 001°03'0 0.0
2019-Jun-08 13:55N 49°27' E 001°03'0 0.0
2019-Jun-08 13:19N 49°27' E 001°03'0 0.0
2019-Jun-08 12:55N 49°27' E 001°03'0 0.0
2019-Jun-08 12:25N 49°27' E 001°03'0 0.0
2019-Jun-08 11:55N 49°27' E 001°03'0 0.0
2019-Jun-08 11:25N 49°27' E 001°03'0 0.0
2019-Jun-08 10:55N 49°27' E 001°03'0 0.0
2019-Jun-08 10:25N 49°27' E 001°03'0 0.0
2019-Jun-08 09:49N 49°27' E 001°03'0 0.0
2019-Jun-08 09:25N 49°27' E 001°03'0 0.0
2019-Jun-08 08:55N 49°27' E 001°03'0 0.0
2019-Jun-08 08:25N 49°27' E 001°03'0 0.0
2019-Jun-08 07:55N 49°27' E 001°03'0 0.0
2019-Jun-08 07:25N 49°27' E 001°03'0 0.0
2019-Jun-08 06:55N 49°27' E 001°03'0 0.0
2019-Jun-08 06:25N 49°27' E 001°03'0 0.0
2019-Jun-08 05:55N 49°27' E 001°03'0 0.0
2019-Jun-08 05:25N 49°27' E 001°03'0 0.0
2019-Jun-08 04:55N 49°27' E 001°03'0 0.0
2019-Jun-08 04:19N 49°27' E 001°03'0 0.0
2019-Jun-08 03:55N 49°27' E 001°03'0 0.0
2019-Jun-08 03:25N 49°27' E 001°03'0 0.0
2019-Jun-08 02:55N 49°27' E 001°03'0 0.0
2019-Jun-08 02:25N 49°27' E 001°03'0 0.0
2019-Jun-08 01:55N 49°27' E 001°03'0 0.0
2019-Jun-08 01:25N 49°27' E 001°03'0 0.0
2019-Jun-08 00:55N 49°27' E 001°03'0 0.0
2019-Jun-08 00:25N 49°27' E 001°03'0 0.0
2019-Jun-07 23:55N 49°27' E 001°03'0 0.0
2019-Jun-07 23:25N 49°27' E 001°03'0 0.0
2019-Jun-07 22:49N 49°27' E 001°03'0 0.0
2019-Jun-07 22:25N 49°27' E 001°03'0 0.0
2019-Jun-07 21:55N 49°27' E 001°03'0 0.0
2019-Jun-07 21:25N 49°27' E 001°03'0 0.0
2019-Jun-07 20:55N 49°27' E 001°03'0 0.0
2019-Jun-07 20:25N 49°27' E 001°03'0 0.0
2019-Jun-07 19:55N 49°27' E 001°03'0 0.0
2019-Jun-07 19:25N 49°27' E 001°03'0 0.0
2019-Jun-07 18:55N 49°27' E 001°03'0 0.0
2019-Jun-07 18:25N 49°27' E 001°03'0 0.0
2019-Jun-07 17:55N 49°27' E 001°03'0 0.0
2019-Jun-07 17:25N 49°27' E 001°03'0 0.0
2019-Jun-07 16:55N 49°27' E 001°03'0 0.0
2019-Jun-07 16:25N 49°27' E 001°03'0 0.0
2019-Jun-07 15:55N 49°27' E 001°03'0 0.0
2019-Jun-07 15:13N 49°27' E 001°03'0 0.0
2019-Jun-07 14:55N 49°27' E 001°03'0 0.0
2019-Jun-07 14:25N 49°27' E 001°03'0 0.0
2019-Jun-07 13:49N 49°27' E 001°03'0 0.0
2019-Jun-07 13:25N 49°27' E 001°03'0 0.0
2019-Jun-07 12:55N 49°27' E 001°03'0 0.0
2019-Jun-07 12:25N 49°27' E 001°03'0 0.0
2019-Jun-07 11:49N 49°27' E 001°03'0 0.0
2019-Jun-07 11:25N 49°27' E 001°03'0 0.0
2019-Jun-07 10:55N 49°27' E 001°03'0 0.0
2019-Jun-07 10:25N 49°27' E 001°03'0 0.0
2019-Jun-07 09:55N 49°27' E 001°03'0 0.0
2019-Jun-07 09:25N 49°27' E 001°03'0 0.0
2019-Jun-07 08:55N 49°27' E 001°03'0 0.0
2019-Jun-07 08:25N 49°27' E 001°03'0 0.0
2019-Jun-07 07:55N 49°27' E 001°03'0 0.0
2019-Jun-07 07:25N 49°27' E 001°03'0 0.0
2019-Jun-07 06:55N 49°27' E 001°03'0 0.0
2019-Jun-07 06:19N 49°27' E 001°03'0 0.0
2019-Jun-07 05:55N 49°27' E 001°03'0 0.0
2019-Jun-07 05:19N 49°27' E 001°03'0 0.0
2019-Jun-07 04:56N 49°27' E 001°03'1 1.5
2019-Jun-07 04:30N 49°26' E 001°02'2 4.8
2019-Jun-07 04:00N 49°24' E 001°01'3 6.7
2019-Jun-07 03:30N 49°21' E 000°58'4 8.5
2019-Jun-07 03:00N 49°25' E 000°56'4 8.4
2019-Jun-07 02:30N 49°29' E 000°52'510.4
2019-Jun-07 02:00N 49°24' E 000°51'5 9.0
2019-Jun-07 01:30N 49°28' E 000°49'5 9.8
2019-Jun-07 01:00N 49°31' E 000°44'510.5
2019-Jun-07 00:31N 49°27' E 000°39'510.1
2019-Jun-07 00:00N 49°28' E 000°32'612.1
2019-Jun-06 23:31N 49°27' E 000°23'510.6
2019-Jun-06 23:01N 49°26' E 000°15'0 0.8
2019-Jun-06 22:28N 49°26' E 000°14'0 0.0
2019-Jun-06 21:58N 49°26' E 000°14'0 0.0
2019-Jun-06 21:28N 49°26' E 000°14'0 0.0
2019-Jun-06 20:58N 49°26' E 000°14'0 0.0
2019-Jun-06 20:28N 49°26' E 000°14'0 0.0
2019-Jun-06 19:58N 49°26' E 000°14'0 0.0
2019-Jun-06 19:25N 49°26' E 000°14'0 0.0
2019-Jun-06 18:59N 49°26' E 000°14'0 0.0
2019-Jun-06 18:29N 49°26' E 000°14'0 0.0
2019-Jun-06 17:59N 49°26' E 000°14'0 0.0
2019-Jun-06 17:30N 49°26' E 000°14'0 0.0
2019-Jun-06 16:56N 49°26' E 000°14'0 0.0
2019-Jun-06 16:26N 49°26' E 000°14'0 0.0
2019-Jun-06 15:59N 49°26' E 000°14'0 0.0
2019-Jun-06 15:29N 49°26' E 000°14'0 0.0
2019-Jun-06 14:59N 49°26' E 000°14'0 0.0
2019-Jun-06 14:29N 49°26' E 000°14'0 0.0
2019-Jun-06 13:59N 49°26' E 000°14'0 0.0
2019-Jun-06 13:29N 49°26' E 000°14'0 0.0
2019-Jun-06 12:59N 49°26' E 000°14'0 0.0
2019-Jun-06 12:29N 49°26' E 000°14'0 0.0
2019-Jun-06 11:59N 49°26' E 000°14'0 0.0
2019-Jun-06 11:29N 49°26' E 000°14'0 0.0
2019-Jun-06 10:59N 49°26' E 000°14'0 0.0
2019-Jun-06 10:29N 49°26' E 000°14'  
Track history (hours):
 
Tides and Currents Weather Stations Pressure Air Temp Water Temp Dewpoint Dewpoint Depression Visibility Wind Speed Wind Dir Waves Ship Positions

Azamara Journey

Last reported at 2019-Jun-16 10:27 UTC. Time now 2019-Jun-16 15:13 UTC.
Position N 56°40' E 018°11'.

Type: Passenger vessel. MMSI: 256204000.

Date/timePositionNaut miles runAvg speedWind from/ knotsBaromVisibWave heightAir tempDewpointWater temp
2019-Jun-16 10:27N 56°40' E 018°11'716.8
2019-Jun-16 10:00N 56°36' E 017°60'032.3
2019-Jun-16 10:00N 56°36' E 018°00'2217.3 040 / 141012.8 16.016.015.0
2019-Jun-16 08:42N 56°22' E 017°28'617.1
2019-Jun-16 08:20N 56°18' E 017°20'1954.7
2019-Jun-16 08:00N 56°06' E 016°54'1065.1 360 / 161012.810.8 18.014.617.0
2019-Jun-16 07:50N 56°13' E 017°08'617.2
2019-Jun-16 07:30N 56°09' E 017°00'917.3
2019-Jun-16 07:00N 56°04' E 016°48'917.3
2019-Jun-16 06:30N 55°60' E 016°34'917.3
2019-Jun-16 06:00N 55°55' E 016°21'917.4
2019-Jun-16 05:30N 55°51' E 016°07'917.6
2019-Jun-16 05:00N 55°47' E 015°53'816.8
2019-Jun-16 04:30N 55°43' E 015°40'917.5
2019-Jun-16 04:00N 55°39' E 015°26'917.6
2019-Jun-16 03:30N 55°35' E 015°13'1019.1
2019-Jun-16 02:59N 55°30' E 014°57'2118.7
2019-Jun-16 01:53N 55°16' E 014°30'719.0
2019-Jun-16 01:30N 55°12' E 014°21'4932.7
2019-Jun-16 00:00N 55°12' E 012°54'2 1.8 300 / 101010.9 18.018.015.0
2019-Jun-15 22:56N 55°14' E 012°55'817.8
2019-Jun-15 22:30N 55°16' E 012°42'714.9
2019-Jun-15 22:00N 55°24' E 012°39'815.6
2019-Jun-15 21:30N 55°31' E 012°42'510.7
2019-Jun-15 21:00N 55°37' E 012°42'6420.1
2019-Jun-15 21:00N 55°42' E 012°36'3 5.8 120 / 31010.8 5.4 18.014.617.0
2019-Jun-15 20:30N 55°43' E 012°41'3 6.0
2019-Jun-15 20:00N 55°41' E 012°36'0 0.0
2019-Jun-15 19:27N 55°41' E 012°36'0 0.0
2019-Jun-15 19:00N 55°41' E 012°36'0 0.0
2019-Jun-15 18:27N 55°41' E 012°36'0 0.0
2019-Jun-15 18:00N 55°41' E 012°36'0 0.0
2019-Jun-15 17:27N 55°41' E 012°36'0 0.0
2019-Jun-15 16:57N 55°41' E 012°36'0 0.0
2019-Jun-15 16:30N 55°41' E 012°36'0 0.0
2019-Jun-15 16:00N 55°41' E 012°36'0 0.0
2019-Jun-15 15:30N 55°41' E 012°36'0 0.0
2019-Jun-15 14:54N 55°41' E 012°36'0 0.0
2019-Jun-15 14:30N 55°41' E 012°36'0 0.0
2019-Jun-15 14:00N 55°41' E 012°36'0 0.0
2019-Jun-15 13:30N 55°41' E 012°36'0 0.0
2019-Jun-15 13:00N 55°41' E 012°36'554910.8
2019-Jun-15 13:00N 56°36' E 012°36'55101.2 090 / 261011.2 18.018.015.0
2019-Jun-15 12:27N 55°41' E 012°36'0 0.0
2019-Jun-15 12:00N 55°41' E 012°36'0 0.0
2019-Jun-15 11:30N 55°41' E 012°36'0 0.0
2019-Jun-15 11:00N 55°41' E 012°36'0 0.0
2019-Jun-15 10:30N 55°41' E 012°36'0 0.0
2019-Jun-15 10:00N 55°41' E 012°36'5489.2
2019-Jun-15 10:00N 55°36' E 012°36'510.1 090 / 61013.8 5.4 18.014.616.0
2019-Jun-15 09:27N 55°41' E 012°36'0 0.0
2019-Jun-15 09:00N 55°41' E 012°36'0 0.0
2019-Jun-15 08:30N 55°41' E 012°36'0 0.0
2019-Jun-15 07:54N 55°41' E 012°36'0 0.0
2019-Jun-15 07:27N 55°41' E 012°36'0 0.0
2019-Jun-15 07:00N 55°41' E 012°36'0 0.0
2019-Jun-15 06:24N 55°41' E 012°36'0 0.0
2019-Jun-15 06:00N 55°41' E 012°36'1 2.7
2019-Jun-15 05:31N 55°43' E 012°37'713.1
2019-Jun-15 05:01N 55°36' E 012°42'612.4
2019-Jun-15 04:30N 55°30' E 012°42'816.0
2019-Jun-15 04:01N 55°22' E 012°41'917.1
2019-Jun-15 03:30N 55°14' E 012°40'917.8
2019-Jun-15 03:00N 55°05' E 012°42'917.8
2019-Jun-15 02:31N 54°56' E 012°44'917.7
2019-Jun-15 02:00N 54°47' E 012°45'816.7
2019-Jun-15 01:30N 54°41' E 012°35'816.6
2019-Jun-15 01:00N 54°36' E 012°23'816.0
2019-Jun-15 00:31N 54°30' E 012°16'815.1
2019-Jun-15 00:00N 54°24' E 012°06'320.0 180 / 101012.8 15.015.015.0
2019-Jun-14 23:51N 54°24' E 012°01'616.6
2019-Jun-14 23:30N 54°24' E 011°51'816.3
2019-Jun-14 23:01N 54°26' E 011°38'816.6
2019-Jun-14 22:31N 54°30' E 011°25'816.0
2019-Jun-14 22:01N 54°34' E 011°13'815.5
2019-Jun-14 21:30N 54°34' E 010°60'816.6
2019-Jun-14 21:00N 54°34' E 010°45'816.8
2019-Jun-14 20:30N 54°32' E 010°31'816.3
2019-Jun-14 20:00N 54°29' E 010°18'6397.4
2019-Jun-14 20:00N 54°24' E 010°12'0 0.4 230 / 81013.8 5.4 18.012.716.0
2019-Jun-14 19:30N 54°24' E 010°12'3 5.6
2019-Jun-14 18:58N 54°22' E 010°09'0 0.5
2019-Jun-14 18:30N 54°22' E 010°08'3 5.8
2019-Jun-14 18:00N 54°22' E 010°03'3 6.3
2019-Jun-14 17:30N 54°21' E 009°58'3 6.4
2019-Jun-14 17:00N 54°21' E 009°53'3 6.1
2019-Jun-14 16:30N 54°22' E 009°48'3 6.2
2019-Jun-14 16:00N 54°20' E 009°44'3 6.0
2019-Jun-14 15:30N 54°18' E 009°40'2 4.7
2019-Jun-14 15:00N 54°16' E 009°38'1 3.0
2019-Jun-14 14:30N 54°14' E 009°37'3 6.1
2019-Jun-14 14:00N 54°12' E 009°33'3 7.0
2019-Jun-14 13:30N 54°11' E 009°28'3 6.0
2019-Jun-14 13:00N 54°09' E 009°23'3 6.5
2019-Jun-14 12:30N 54°07' E 009°20'3 6.9
2019-Jun-14 12:00N 54°04' E 009°19'4347.1
2019-Jun-14 12:00N 54°00' E 009°18'2 4.7 200 / 91013.8 22.022.015.0
2019-Jun-14 11:30N 54°02' E 009°18'2 4.7
2019-Jun-14 11:00N 53°60' E 009°18'3 6.8
2019-Jun-14 10:30N 53°57' E 009°14'3 6.7
2019-Jun-14 10:00N 53°55' E 009°11'1 2.8
2019-Jun-14 09:30N 53°54' E 009°09'0 0.5
2019-Jun-14 09:00N 53°53' E 009°08'2 3.2
2019-Jun-14 08:30N 53°53' E 009°06'2 4.2
2019-Jun-14 08:00N 53°52' E 009°03'102632.4
2019-Jun-14 08:00N 53°48' E 008°48'3 5.0 200 / 171014.8 5.4 15.011.315.0
2019-Jun-14 07:30N 53°50' E 008°49'814.0
2019-Jun-14 06:55N 53°56' E 008°39'716.5
2019-Jun-14 06:28N 53°59' E 008°27'1015.4
2019-Jun-14 05:49N 53°59' E 008°10'413.8
2019-Jun-14 05:30N 53°59' E 008°03'714.8
2019-Jun-14 05:00N 53°57' E 007°51'9816.3
2019-Jun-13 23:00N 53°30' E 005°12'612.2 190 / 301010.0 14.014.015.0
2019-Jun-13 22:30N 53°29' E 005°02'1937.4
2019-Jun-13 22:00N 53°18' E 004°36'2 2.4 180 / 201008.810.8 14.010.215.0
2019-Jun-13 21:20N 53°18' E 004°39'516.2
2019-Jun-13 21:01N 53°13' E 004°34'816.0
2019-Jun-13 20:31N 53°06' E 004°28'816.0
2019-Jun-13 20:01N 52°59' E 004°22'815.6
2019-Jun-13 19:30N 52°52' E 004°17'815.2
2019-Jun-13 19:00N 52°44' E 004°15'815.7
2019-Jun-13 18:31N 52°37' E 004°17'816.1
2019-Jun-13 18:01N 52°30' E 004°25'611.4
2019-Jun-13 17:31N 52°28' E 004°33'2 3.8
2019-Jun-13 17:01N 52°28' E 004°36'3 5.1
2019-Jun-13 16:30N 52°27' E 004°41'4 7.9
2019-Jun-13 16:00N 52°26' E 004°46'4 7.8
2019-Jun-13 15:31N 52°24' E 004°52'2 4.5
2019-Jun-13 15:00N 52°23' E 004°55'0 0.0
2019-Jun-13 14:30N 52°23' E 004°55'0 0.0
2019-Jun-13 14:00N 52°23' E 004°55'0 0.0
2019-Jun-13 13:30N 52°23' E 004°55'0 0.0
2019-Jun-13 12:57N 52°23' E 004°55'0 0.0
2019-Jun-13 12:30N 52°23' E 004°55'0 0.0
2019-Jun-13 12:00N 52°23' E 004°55'0 0.0
2019-Jun-13 11:30N 52°23' E 004°55'0 0.0
2019-Jun-13 10:54N 52°23' E 004°55'0 0.0
2019-Jun-13 10:30N 52°23' E 004°55'0 0.0
2019-Jun-13 10:00N 52°23' E 004°55'0 0.0
2019-Jun-13 09:30N 52°23' E 004°55'0 0.0
2019-Jun-13 09:00N 52°23' E 004°55'51069.3
2019-Jun-13 09:00N 52°18' E 004°54'5 8.7 190 / 201008.8 5.4 15.011.316.0
2019-Jun-13 08:27N 52°23' E 004°55'0 0.0
2019-Jun-13 08:00N 52°23' E 004°55'0 0.0
2019-Jun-13 07:30N 52°23' E 004°55'0 0.0
2019-Jun-13 07:00N 52°23' E 004°55'0 0.0
2019-Jun-13 06:27N 52°23' E 004°55'0 0.0
2019-Jun-13 06:00N 52°23' E 004°55'0 0.0
2019-Jun-13 05:27N 52°23' E 004°55'0 0.0
2019-Jun-13 05:00N 52°23' E 004°55'0 0.0
2019-Jun-13 04:27N 52°23' E 004°55'0 0.0
2019-Jun-13 03:57N 52°23' E 004°55'0 0.0
2019-Jun-13 03:30N 52°23' E 004°55'0 0.0
2019-Jun-13 03:00N 52°23' E 004°55'0 0.0
2019-Jun-13 02:30N 52°23' E 004°55'0 0.0
2019-Jun-13 02:00N 52°23' E 004°55'0 0.0
2019-Jun-13 01:30N 52°23' E 004°55'0 0.0
2019-Jun-13 01:00N 52°23' E 004°55'0 0.0
2019-Jun-13 00:30N 52°23' E 004°55'0 0.0
2019-Jun-13 00:00N 52°23' E 004°55'0 0.0
2019-Jun-12 23:30N 52°23' E 004°55'0 0.0
2019-Jun-12 23:00N 52°23' E 004°55'51006.4
2019-Jun-12 23:00N 52°18' E 004°54'5 9.6 180 / 31008.0 13.013.015.0
2019-Jun-12 22:30N 52°23' E 004°55'0 0.0
2019-Jun-12 21:57N 52°23' E 004°55'0 0.0
2019-Jun-12 21:30N 52°23' E 004°55'0 0.0
2019-Jun-12 21:00N 52°23' E 004°55'0 0.0
2019-Jun-12 20:30N 52°23' E 004°55'0 0.0
2019-Jun-12 20:00N 52°23' E 004°55'0 0.0
2019-Jun-12 19:30N 52°23' E 004°55'0 0.0
2019-Jun-12 19:00N 52°23' E 004°55'51006.4
2019-Jun-12 19:00N 52°18' E 004°54'5 9.6 180 / 31007.8 5.4 14.010.215.0
2019-Jun-12 18:30N 52°23' E 004°55'0 0.0
2019-Jun-12 18:00N 52°23' E 004°55'0 0.0
2019-Jun-12 17:30N 52°23' E 004°55'0 0.0
2019-Jun-12 16:51N 52°23' E 004°55'0 0.0
2019-Jun-12 16:30N 52°23' E 004°55'0 0.0
2019-Jun-12 16:00N 52°23' E 004°55'0 0.0
2019-Jun-12 15:30N 52°23' E 004°55'1 1.1
2019-Jun-12 15:01N 52°23' E 004°56'2 4.5
2019-Jun-12 14:31N 52°24' E 004°53'4 7.8
2019-Jun-12 14:01N 52°26' E 004°47'4 8.3
2019-Jun-12 13:30N 52°27' E 004°41'3 5.0
2019-Jun-12 13:01N 52°28' E 004°37'2 3.9
2019-Jun-12 12:30N 52°28' E 004°33'612.4
2019-Jun-12 12:00N 52°29' E 004°23'510.3
2019-Jun-12 11:30N 52°29' E 004°15'510.3
2019-Jun-12 11:00N 52°28' E 004°06'510.1
2019-Jun-12 10:30N 52°27' E 003°58'510.0
2019-Jun-12 10:00N 52°26' E 003°50'510.3
2019-Jun-12 09:28N 52°24' E 003°42'510.2
2019-Jun-12 09:00N 52°22' E 003°35'5320.3
2019-Jun-12 09:00N 52°18' E 003°30'2 3.3 050 / 121008.8 5.4 14.010.215.0
2019-Jun-12 08:28N 52°19' E 003°28'611.4
2019-Jun-12 07:59N 52°15' E 003°20'612.0
2019-Jun-12 07:30N 52°12' E 003°13'611.6
2019-Jun-12 07:00N 52°08' E 003°07'611.4
2019-Jun-12 06:30N 52°03' E 003°01'611.4
2019-Jun-12 06:00N 51°59' E 002°54'611.4
2019-Jun-12 05:30N 51°55' E 002°48'611.7
2019-Jun-12 05:00N 51°50' E 002°42'611.6
2019-Jun-12 04:31N 51°46' E 002°36'611.4
2019-Jun-12 04:00N 51°42' E 002°30'611.6
2019-Jun-12 03:30N 51°37' E 002°24'611.5
2019-Jun-12 03:01N 51°33' E 002°18'1111.1
2019-Jun-12 02:00N 51°25' E 002°05'11787.2
2019-Jun-12 02:00N 51°24' E 001°48'612.4 130 / 101010.3 16.016.016.0
2019-Jun-12 01:31N 51°25' E 001°57'611.8
2019-Jun-12 01:01N 51°29' E 001°50'612.9
2019-Jun-12 00:31N 51°29' E 001°40'612.9
2019-Jun-12 00:00N 51°28' E 001°30'510.1
2019-Jun-11 23:30N 51°28' E 001°22'815.8
2019-Jun-11 23:00N 51°29' E 001°09'612.3
2019-Jun-11 22:30N 51°29' E 000°59'816.1
2019-Jun-11 22:00N 51°29' E 000°47'7431.9
2019-Jun-11 22:00N 51°24' E 000°54'1429.0 360 / 171010.8 5.4 14.010.216.0
2019-Jun-11 21:30N 51°30' E 000°34'612.0
2019-Jun-11 21:01N 51°27' E 000°26'5 9.9
2019-Jun-11 20:31N 51°28' E 000°18'611.2
2019-Jun-11 20:00N 51°30' E 000°10'5 9.9
2019-Jun-11 19:31N 51°30' E 000°02'2 3.7
2019-Jun-11 19:00N 51°29' W 000°01'0 0.0
2019-Jun-11 18:30N 51°29' W 000°01'0 0.0
2019-Jun-11 18:00N 51°29' W 000°01'0 0.0
2019-Jun-11 17:12N 51°29' W 000°01'0 0.0
2019-Jun-11 16:48N 51°29' W 000°01'0 0.0
2019-Jun-11 16:24N 51°29' W 000°01'0 0.0
2019-Jun-11 15:24N 51°29' W 000°01'0 0.0
2019-Jun-11 12:00N 51°29' W 000°01'5 5.1
2019-Jun-11 11:00N 51°24' E 000°00'520.6 1020.7 18.018.016.0
2019-Jun-11 10:45N 51°29' W 000°01'0 0.0
2019-Jun-11 10:09N 51°29' W 000°01'0 0.0
2019-Jun-11 09:42N 51°29' W 000°01'0 0.0
2019-Jun-11 09:27N 51°29' W 000°01'511.2
2019-Jun-11 09:00N 51°24' E 000°00'552.6 110 / 41010.8 5.4 15.011.317.0
2019-Jun-11 08:54N 51°29' W 000°01'0 0.0
2019-Jun-11 08:24N 51°29' W 000°01'0 0.0
2019-Jun-11 08:00N 51°29' W 000°01'0 0.0
2019-Jun-11 07:06N 51°29' W 000°01'0 0.0
2019-Jun-11 06:54N 51°29' W 000°01'0 0.0
2019-Jun-11 06:30N 51°29' W 000°01'0 0.0
2019-Jun-11 05:48N 51°29' W 000°01'0 0.0
2019-Jun-11 05:12N 51°29' W 000°01'0 0.0
2019-Jun-11 04:48N 51°29' W 000°01'0 0.0
2019-Jun-11 04:30N 51°29' W 000°01'0 0.0
2019-Jun-11 03:42N 51°29' W 000°01'0 0.0
2019-Jun-11 03:30N 51°29' W 000°01'0 0.0
2019-Jun-11 02:54N 51°29' W 000°01'0 0.0
2019-Jun-11 02:06N 51°29' W 000°01'0 0.0
2019-Jun-11 01:36N 51°29' W 000°01'0 0.0
2019-Jun-11 01:24N 51°29' W 000°01'0 0.0
2019-Jun-11 00:48N 51°29' W 000°01'0 0.0
2019-Jun-11 00:30N 51°29' W 000°01'0 0.0
2019-Jun-10 23:48N 51°29' W 000°01'5 6.3
2019-Jun-10 23:00N 51°24' E 000°00'552.4 200 / 41008.8 5.4 12.0 7.916.0
2019-Jun-10 22:54N 51°29' W 000°01'0 0.0
2019-Jun-10 22:30N 51°29' W 000°01'0 0.0
2019-Jun-10 21:36N 51°29' W 000°01'0 0.0
2019-Jun-10 21:06N 51°29' W 000°01'0 0.0
2019-Jun-10 20:12N 51°29' W 000°01'0 0.0
2019-Jun-10 19:30N 51°29' W 000°01'0 0.0
2019-Jun-10 18:48N 51°29' W 000°01'0 0.0
2019-Jun-10 18:18N 51°29' W 000°01'0 0.0
2019-Jun-10 17:48N 51°29' W 000°01'0 0.0
2019-Jun-10 17:21N 51°29' W 000°01'0 0.0
2019-Jun-10 16:57N 51°29' W 000°01'0 0.0
2019-Jun-10 16:27N 51°29' W 000°01'0 0.0
2019-Jun-10 15:45N 51°29' W 000°01'0 0.0
2019-Jun-10 14:36N 51°29' W 000°01'0 0.0
2019-Jun-10 14:12N 51°29' W 000°01'0 0.0
2019-Jun-10 13:51N 51°29' W 000°01'0 0.0
2019-Jun-10 12:51N 51°29' W 000°01'0 0.0
2019-Jun-10 11:42N 51°29' W 000°01'0 0.0
2019-Jun-10 11:24N 51°29' W 000°01'0 0.0
2019-Jun-10 10:48N 51°29' W 000°01'0 0.0
2019-Jun-10 10:18N 51°29' W 000°01'0 0.0
2019-Jun-10 09:54N 51°29' W 000°01'0 0.0
2019-Jun-10 09:30N 51°29' W 000°01'510.1
2019-Jun-10 09:00N 51°24' E 000°00'525.8 010 / 61014.8 5.4 14.012.215.0
2019-Jun-10 08:48N 51°29' W 000°01'0 0.0
2019-Jun-10 08:30N 51°29' W 000°01'0 0.0
2019-Jun-10 08:00N 51°29' W 000°01'0 0.0
2019-Jun-10 07:30N 51°29' W 000°01'0 0.0
2019-Jun-10 07:00N 51°29' W 000°01'0 0.0
2019-Jun-10 06:24N 51°29' W 000°01'0 0.0
2019-Jun-10 06:00N 51°29' W 000°01'0 0.9
2019-Jun-10 05:30N 51°29' W 000°00'1 2.4
2019-Jun-10 05:00N 51°30' E 000°00'4 7.2
2019-Jun-10 04:30N 51°31' E 000°06'611.9
2019-Jun-10 04:01N 51°28' E 000°15'510.0
2019-Jun-10 03:30N 51°27' E 000°23'4 8.3
2019-Jun-10 03:01N 51°29' E 000°28'510.7
2019-Jun-10 02:30N 51°30' E 000°36'713.7
2019-Jun-10 02:00N 51°29' E 000°47'713.3
2019-Jun-10 01:30N 51°29' E 000°58'613.0
2019-Jun-10 01:00N 51°29' E 001°08'612.2
2019-Jun-10 00:30N 51°29' E 001°18'612.1
2019-Jun-10 00:00N 51°27' E 001°28'611.1
2019-Jun-09 23:31N 51°24' E 001°34'4 8.6
2019-Jun-09 23:01N 51°20' E 001°37'4 8.3
2019-Jun-09 22:30N 51°16' E 001°39'4 7.7
2019-Jun-09 22:01N 51°12' E 001°41'510.6
2019-Jun-09 21:31N 51°07' E 001°41'4 8.7
2019-Jun-09 21:00N 51°04' E 001°37'4225.0
2019-Jun-09 21:00N 51°00' E 001°36'3 6.2 070 / 81017.9 5.4 13.011.116.0
2019-Jun-09 20:31N 51°00' E 001°31'5 9.1
2019-Jun-09 20:00N 50°57' E 001°26'5 9.2
2019-Jun-09 19:30N 50°53' E 001°24'5 9.6
2019-Jun-09 19:00N 50°48' E 001°22'510.0
2019-Jun-09 18:28N 50°43' E 001°20'5 9.6
2019-Jun-09 17:59N 50°40' E 001°14'5 9.8
2019-Jun-09 17:30N 50°37' E 001°08'510.2
2019-Jun-09 16:59N 50°34' E 001°01'510.1
2019-Jun-09 16:29N 50°31' E 000°54'4 9.3
2019-Jun-09 16:00N 50°30' E 000°48'5 9.8
2019-Jun-09 15:30N 50°29' E 000°40'5 9.8
2019-Jun-09 15:01N 50°27' E 000°33'5 9.8
2019-Jun-09 14:30N 50°24' E 000°27'5 9.8
2019-Jun-09 14:00N 50°22' E 000°20'5 9.9
2019-Jun-09 13:30N 50°20' E 000°13'510.0
2019-Jun-09 13:00N 50°18' E 000°06'0 8.6
2019-Jun-09 13:00N 50°18' E 000°06'810.6 090 / 81019.8 13.013.016.0
2019-Jun-09 12:17N 50°15' W 000°05'310.3
2019-Jun-09 12:00N 50°13' W 000°08'510.3
2019-Jun-09 11:30N 50°10' W 000°15'4 8.9
2019-Jun-09 11:00N 50°06' W 000°12'510.4
2019-Jun-09 10:30N 50°03' W 000°06'5 9.3
2019-Jun-09 10:01N 49°59' W 000°03'510.3
2019-Jun-09 09:30N 49°55' W 000°09'5 9.2
2019-Jun-09 09:01N 49°54' W 000°15'510.3
2019-Jun-09 08:30N 49°57' W 000°22'510.4
2019-Jun-09 08:01N 49°59' W 000°29'510.5
2019-Jun-09 07:30N 50°02' W 000°36'510.3
2019-Jun-09 07:00N 50°02' W 000°44'510.5
2019-Jun-09 06:30N 50°01' W 000°52'510.2
2019-Jun-09 06:01N 49°60' W 000°60'3 6.1
2019-Jun-09 05:30N 49°56' W 001°01'611.4
2019-Jun-09 05:01N 49°53' W 000°54'1010.5
2019-Jun-09 04:00N 49°43' W 000°47'510.4
2019-Jun-09 03:30N 49°39' W 000°42'510.7
2019-Jun-09 03:01N 49°35' W 000°37'510.0
2019-Jun-09 02:30N 49°32' W 000°31'510.2
2019-Jun-09 02:01N 49°32' W 000°23'510.6
2019-Jun-09 01:31N 49°32' W 000°15'612.5
2019-Jun-09 01:00N 49°30' W 000°05'5 9.9
2019-Jun-09 00:30N 49°27' E 000°01'714.9
2019-Jun-09 00:00N 49°26' E 000°13'611.2
2019-Jun-08 23:31N 49°26' E 000°21'510.6
2019-Jun-08 23:01N 49°29' E 000°28'4 8.1
2019-Jun-08 22:31N 49°27' E 000°34'4 8.4
2019-Jun-08 22:01N 49°28' E 000°40'4 8.4
2019-Jun-08 21:31N 49°31' E 000°44'510.1
2019-Jun-08 21:00N 49°28' E 000°49'4 8.5
2019-Jun-08 20:31N 49°24' E 000°51'510.4
2019-Jun-08 20:00N 49°29' E 000°53'4 8.4
2019-Jun-08 19:30N 49°25' E 000°56'4 8.7
2019-Jun-08 19:00N 49°21' E 000°58'4 7.4
2019-Jun-08 18:30N 49°24' E 001°01'3 5.3
2019-Jun-08 18:00N 49°27' E 001°03'0 0.0
2019-Jun-08 17:25N 49°27' E 001°03'0 0.0
2019-Jun-08 16:55N 49°27' E 001°03'0 0.0
2019-Jun-08 16:25N 49°27' E 001°03'0 0.0
2019-Jun-08 15:55N 49°27' E 001°03'0 0.0
2019-Jun-08 15:19N 49°27' E 001°03'0 0.0
2019-Jun-08 14:55N 49°27' E 001°03'0 0.0
2019-Jun-08 14:25N 49°27' E 001°03'0 0.0
2019-Jun-08 13:55N 49°27' E 001°03'0 0.0
2019-Jun-08 13:19N 49°27' E 001°03'0 0.0
2019-Jun-08 12:55N 49°27' E 001°03'0 0.0
2019-Jun-08 12:25N 49°27' E 001°03'0 0.0
2019-Jun-08 11:55N 49°27' E 001°03'0 0.0
2019-Jun-08 11:25N 49°27' E 001°03'0 0.0
2019-Jun-08 10:55N 49°27' E 001°03'0 0.0
2019-Jun-08 10:25N 49°27' E 001°03'0 0.0
2019-Jun-08 09:49N 49°27' E 001°03'0 0.0
2019-Jun-08 09:25N 49°27' E 001°03'0 0.0
2019-Jun-08 08:55N 49°27' E 001°03'0 0.0
2019-Jun-08 08:25N 49°27' E 001°03'0 0.0
2019-Jun-08 07:55N 49°27' E 001°03'0 0.0
2019-Jun-08 07:25N 49°27' E 001°03'0 0.0
2019-Jun-08 06:55N 49°27' E 001°03'0 0.0
2019-Jun-08 06:25N 49°27' E 001°03'0 0.0
2019-Jun-08 05:55N 49°27' E 001°03'0 0.0
2019-Jun-08 05:25N 49°27' E 001°03'0 0.0
2019-Jun-08 04:55N 49°27' E 001°03'0 0.0
2019-Jun-08 04:19N 49°27' E 001°03'0 0.0
2019-Jun-08 03:55N 49°27' E 001°03'0 0.0
2019-Jun-08 03:25N 49°27' E 001°03'0 0.0
2019-Jun-08 02:55N 49°27' E 001°03'0 0.0
2019-Jun-08 02:25N 49°27' E 001°03'0 0.0
2019-Jun-08 01:55N 49°27' E 001°03'0 0.0
2019-Jun-08 01:25N 49°27' E 001°03'0 0.0
2019-Jun-08 00:55N 49°27' E 001°03'0 0.0
2019-Jun-08 00:25N 49°27' E 001°03'0 0.0
2019-Jun-07 23:55N 49°27' E 001°03'0 0.0
2019-Jun-07 23:25N 49°27' E 001°03'0 0.0
2019-Jun-07 22:49N 49°27' E 001°03'0 0.0
2019-Jun-07 22:25N 49°27' E 001°03'0 0.0
2019-Jun-07 21:55N 49°27' E 001°03'0 0.0
2019-Jun-07 21:25N 49°27' E 001°03'0 0.0
2019-Jun-07 20:55N 49°27' E 001°03'0 0.0
2019-Jun-07 20:25N 49°27' E 001°03'0 0.0
2019-Jun-07 19:55N 49°27' E 001°03'0 0.0
2019-Jun-07 19:25N 49°27' E 001°03'0 0.0
2019-Jun-07 18:55N 49°27' E 001°03'0 0.0
2019-Jun-07 18:25N 49°27' E 001°03'0 0.0
2019-Jun-07 17:55N 49°27' E 001°03'0 0.0
2019-Jun-07 17:25N 49°27' E 001°03'0 0.0
2019-Jun-07 16:55N 49°27' E 001°03'0 0.0
2019-Jun-07 16:25N 49°27' E 001°03'0 0.0
2019-Jun-07 15:55N 49°27' E 001°03'0 0.0
2019-Jun-07 15:13N 49°27' E 001°03'0 0.0
2019-Jun-07 14:55N 49°27' E 001°03'0 0.0
2019-Jun-07 14:25N 49°27' E 001°03'0 0.0
2019-Jun-07 13:49N 49°27' E 001°03'0 0.0
2019-Jun-07 13:25N 49°27' E 001°03'0 0.0
2019-Jun-07 12:55N 49°27' E 001°03'0 0.0
2019-Jun-07 12:25N 49°27' E 001°03'0 0.0
2019-Jun-07 11:49N 49°27' E 001°03'0 0.0
2019-Jun-07 11:25N 49°27' E 001°03'0 0.0
2019-Jun-07 10:55N 49°27' E 001°03'0 0.0
2019-Jun-07 10:25N 49°27' E 001°03'0 0.0
2019-Jun-07 09:55N 49°27' E 001°03'0 0.0
2019-Jun-07 09:25N 49°27' E 001°03'0 0.0
2019-Jun-07 08:55N 49°27' E 001°03'0 0.0
2019-Jun-07 08:25N 49°27' E 001°03'0 0.0
2019-Jun-07 07:55N 49°27' E 001°03'0 0.0
2019-Jun-07 07:25N 49°27' E 001°03'0 0.0
2019-Jun-07 06:55N 49°27' E 001°03'0 0.0
2019-Jun-07 06:19N 49°27' E 001°03'0 0.0
2019-Jun-07 05:55N 49°27' E 001°03'0 0.0
2019-Jun-07 05:19N 49°27' E 001°03'0 0.0
2019-Jun-07 04:56N 49°27' E 001°03'1 1.5
2019-Jun-07 04:30N 49°26' E 001°02'2 4.8
2019-Jun-07 04:00N 49°24' E 001°01'3 6.7
2019-Jun-07 03:30N 49°21' E 000°58'4 8.5
2019-Jun-07 03:00N 49°25' E 000°56'4 8.4
2019-Jun-07 02:30N 49°29' E 000°52'510.4
2019-Jun-07 02:00N 49°24' E 000°51'5 9.0
2019-Jun-07 01:30N 49°28' E 000°49'5 9.8
2019-Jun-07 01:00N 49°31' E 000°44'510.5
2019-Jun-07 00:31N 49°27' E 000°39'510.1
2019-Jun-07 00:00N 49°28' E 000°32'612.1
2019-Jun-06 23:31N 49°27' E 000°23'510.6
2019-Jun-06 23:01N 49°26' E 000°15'0 0.8
2019-Jun-06 22:28N 49°26' E 000°14'0 0.0
2019-Jun-06 21:58N 49°26' E 000°14'0 0.0
2019-Jun-06 21:28N 49°26' E 000°14'0 0.0
2019-Jun-06 20:58N 49°26' E 000°14'0 0.0
2019-Jun-06 20:28N 49°26' E 000°14'0 0.0
2019-Jun-06 19:58N 49°26' E 000°14'0 0.0
2019-Jun-06 19:25N 49°26' E 000°14'0 0.0
2019-Jun-06 18:59N 49°26' E 000°14'0 0.0
2019-Jun-06 18:29N 49°26' E 000°14'0 0.0
2019-Jun-06 17:59N 49°26' E 000°14'0 0.0
2019-Jun-06 17:30N 49°26' E 000°14'0 0.0
2019-Jun-06 16:56N 49°26' E 000°14'0 0.0
2019-Jun-06 16:26N 49°26' E 000°14'0 0.0
2019-Jun-06 15:59N 49°26' E 000°14'0 0.0
2019-Jun-06 15:29N 49°26' E 000°14'0 0.0
2019-Jun-06 14:59N 49°26' E 000°14'0 0.0
2019-Jun-06 14:29N 49°26' E 000°14'0 0.0
2019-Jun-06 13:59N 49°26' E 000°14'0 0.0
2019-Jun-06 13:29N 49°26' E 000°14'0 0.0
2019-Jun-06 12:59N 49°26' E 000°14'0 0.0
2019-Jun-06 12:29N 49°26' E 000°14'0 0.0
2019-Jun-06 11:59N 49°26' E 000°14'0 0.0
2019-Jun-06 11:29N 49°26' E 000°14'0 0.0
2019-Jun-06 10:59N 49°26' E 000°14'0 0.0
2019-Jun-06 10:29N 49°26' E 000°14'  

Dump ship's entire track history